createdAt,value
2022-12-29T00:00:18.663Z,12.30
2022-12-29T00:02:45.493Z,12.30
2022-12-29T00:05:12.273Z,12.30
2022-12-29T00:07:38.900Z,12.30
2022-12-29T00:10:06.177Z,12.20
2022-12-29T00:12:52.774Z,12.30
2022-12-29T00:15:38.179Z,12.30
2022-12-29T00:18:05.316Z,12.30
2022-12-29T00:20:54.212Z,12.30
2022-12-29T00:23:39.617Z,12.30
2022-12-29T00:26:33.266Z,12.30
2022-12-29T00:29:18.664Z,12.30
2022-12-29T00:32:04.090Z,12.30
2022-12-29T00:34:49.526Z,12.30
2022-12-29T00:37:16.568Z,12.30
2022-12-29T00:40:02.271Z,12.30
2022-12-29T00:42:47.914Z,12.30
2022-12-29T00:45:14.639Z,12.30
2022-12-29T00:47:41.268Z,12.30
2022-12-29T00:50:08.353Z,12.30
2022-12-29T00:52:34.963Z,12.40
2022-12-29T00:55:01.610Z,12.40
2022-12-29T00:57:28.237Z,12.40
2022-12-29T00:59:54.887Z,12.40
2022-12-29T01:02:21.634Z,12.40
2022-12-29T01:04:48.499Z,12.40
2022-12-29T01:07:15.121Z,12.40
2022-12-29T01:10:00.307Z,12.40
2022-12-29T01:12:42.144Z,12.40
2022-12-29T01:15:11.047Z,12.40
2022-12-29T01:17:37.704Z,12.40
2022-12-29T01:20:04.991Z,12.40
2022-12-29T01:22:31.623Z,12.40
2022-12-29T01:24:58.301Z,12.40
2022-12-29T01:27:24.949Z,12.30
2022-12-29T01:29:51.651Z,12.30
2022-12-29T01:32:18.334Z,12.30
2022-12-29T01:34:45.120Z,12.30
2022-12-29T01:37:12.116Z,12.30
2022-12-29T01:39:38.910Z,12.30
2022-12-29T01:42:05.774Z,12.30
2022-12-29T01:44:50.451Z,12.30
2022-12-29T01:47:42.313Z,12.30
2022-12-29T01:50:19.928Z,12.30
2022-12-29T01:52:57.223Z,12.20
2022-12-29T01:55:24.538Z,12.20
2022-12-29T01:57:53.986Z,12.20
2022-12-29T02:00:20.686Z,12.20
2022-12-29T02:02:52.461Z,12.10
2022-12-29T02:05:49.716Z,12.10
2022-12-29T02:08:16.472Z,12.10
2022-12-29T02:10:45.292Z,12.10
2022-12-29T02:13:12.019Z,12.10
2022-12-29T02:16:16.377Z,12.10
2022-12-29T02:19:04.713Z,12.10
2022-12-29T02:21:56.133Z,12.10
2022-12-29T02:24:44.269Z,12.00
2022-12-29T02:27:16.735Z,12.00
2022-12-29T02:29:59.952Z,12.00
2022-12-29T02:32:57.384Z,12.00
2022-12-29T02:35:54.860Z,12.00
2022-12-29T02:38:45.077Z,12.00
2022-12-29T02:41:32.057Z,12.00
2022-12-29T02:44:07.866Z,12.00
2022-12-29T02:46:45.584Z,12.10
2022-12-29T02:49:20.847Z,12.10
2022-12-29T02:51:53.309Z,12.10
2022-12-29T02:54:39.270Z,12.20
2022-12-29T02:57:23.975Z,12.20
2022-12-29T02:59:55.555Z,12.30
2022-12-29T03:02:50.343Z,12.20
2022-12-29T03:05:39.447Z,12.30
2022-12-29T03:08:14.966Z,12.30
2022-12-29T03:10:56.727Z,12.20
2022-12-29T03:13:54.034Z,12.20
2022-12-29T03:16:30.000Z,12.20
2022-12-29T03:19:08.066Z,12.20
2022-12-29T03:22:02.520Z,12.20
2022-12-29T03:24:33.496Z,12.20
2022-12-29T03:27:03.760Z,12.20
2022-12-29T03:29:32.178Z,12.30
2022-12-29T03:32:00.447Z,12.10
2022-12-29T03:34:28.672Z,12.10
2022-12-29T03:37:03.802Z,12.00
2022-12-29T03:39:30.468Z,11.90
2022-12-29T03:42:03.722Z,11.90
2022-12-29T03:44:40.035Z,11.80
2022-12-29T03:47:08.091Z,11.80
2022-12-29T03:49:35.153Z,11.80
2022-12-29T03:52:01.844Z,11.70
2022-12-29T03:54:28.516Z,11.80
2022-12-29T03:56:55.352Z,11.80
2022-12-29T03:59:22.321Z,11.80
2022-12-29T04:01:49.160Z,11.80
2022-12-29T04:04:16.103Z,11.80
2022-12-29T04:06:44.400Z,11.90
2022-12-29T04:09:11.814Z,11.90
2022-12-29T04:11:38.482Z,11.90
2022-12-29T04:14:05.251Z,11.90
2022-12-29T04:16:31.973Z,11.90
2022-12-29T04:18:58.627Z,12.00
2022-12-29T04:21:25.281Z,12.00
2022-12-29T04:23:51.884Z,12.00
2022-12-29T04:26:18.528Z,12.00
2022-12-29T04:28:45.236Z,12.00
2022-12-29T04:31:12.073Z,12.00
2022-12-29T04:33:38.733Z,12.00
2022-12-29T04:36:05.557Z,12.00
2022-12-29T04:38:32.316Z,12.00
2022-12-29T04:41:02.555Z,11.90
2022-12-29T04:43:29.832Z,11.80
2022-12-29T04:45:56.652Z,11.80
2022-12-29T04:48:23.416Z,11.80
2022-12-29T04:50:50.934Z,11.80
2022-12-29T04:53:18.722Z,11.80
2022-12-29T04:55:45.422Z,11.80
2022-12-29T04:58:14.038Z,11.80
2022-12-29T05:00:44.238Z,11.80
2022-12-29T05:03:11.139Z,11.90
2022-12-29T05:05:37.948Z,11.90
2022-12-29T05:08:04.833Z,12.00
2022-12-29T05:10:31.452Z,12.00
2022-12-29T05:12:59.230Z,12.00
2022-12-29T05:15:25.844Z,12.10
2022-12-29T05:17:52.908Z,12.10
2022-12-29T05:20:19.974Z,12.20
2022-12-29T05:22:46.641Z,12.20
2022-12-29T05:25:13.290Z,12.30
2022-12-29T05:27:39.932Z,12.30
2022-12-29T05:30:07.226Z,12.30
2022-12-29T05:32:34.352Z,12.30
2022-12-29T05:35:00.977Z,12.30
2022-12-29T05:37:27.652Z,12.40
2022-12-29T05:39:54.325Z,12.40
2022-12-29T05:42:20.949Z,12.40
2022-12-29T05:44:47.667Z,12.40
2022-12-29T05:47:14.335Z,12.40
2022-12-29T05:49:41.259Z,12.40
2022-12-29T05:52:07.867Z,12.50
2022-12-29T05:54:34.510Z,12.50
2022-12-29T05:57:01.116Z,12.50
2022-12-29T05:59:27.781Z,12.50
2022-12-29T06:01:54.602Z,12.60
2022-12-29T06:04:21.431Z,12.60
2022-12-29T06:06:48.062Z,12.60
2022-12-29T06:09:14.800Z,12.60
2022-12-29T06:11:41.410Z,12.50
2022-12-29T06:14:08.118Z,12.50
2022-12-29T06:16:34.750Z,12.50
2022-12-29T06:19:01.437Z,12.50
2022-12-29T06:21:28.214Z,12.40
2022-12-29T06:23:55.049Z,12.40
2022-12-29T06:26:21.917Z,12.40
2022-12-29T06:28:48.600Z,12.40
2022-12-29T06:31:15.314Z,12.40
2022-12-29T06:33:42.012Z,12.40
2022-12-29T06:36:08.738Z,12.40
2022-12-29T06:38:36.180Z,12.40
2022-12-29T06:41:03.017Z,12.40
2022-12-29T06:43:31.351Z,12.40
2022-12-29T06:45:58.008Z,12.40
2022-12-29T06:48:24.764Z,12.40
2022-12-29T06:50:51.412Z,12.40
2022-12-29T06:53:18.080Z,12.40
2022-12-29T06:55:44.690Z,12.50
2022-12-29T06:58:11.340Z,12.50
2022-12-29T07:00:37.967Z,12.60
2022-12-29T07:03:04.760Z,12.60
2022-12-29T07:05:33.544Z,12.60
2022-12-29T07:08:00.864Z,12.60
2022-12-29T07:10:27.716Z,12.70
2022-12-29T07:12:54.369Z,12.70
2022-12-29T07:15:21.113Z,12.70
2022-12-29T07:17:47.858Z,12.70
2022-12-29T07:20:14.486Z,12.70
2022-12-29T07:22:41.135Z,12.80
2022-12-29T07:25:08.209Z,12.80
2022-12-29T07:27:34.869Z,12.80
2022-12-29T07:30:01.669Z,12.80
2022-12-29T07:32:28.387Z,12.80
2022-12-29T07:34:55.039Z,12.80
2022-12-29T07:37:21.670Z,12.80
2022-12-29T07:39:48.289Z,12.80
2022-12-29T07:42:14.987Z,12.90
2022-12-29T07:44:41.638Z,12.90
2022-12-29T07:47:08.346Z,12.80
2022-12-29T07:49:34.997Z,12.80
2022-12-29T07:52:01.634Z,12.80
2022-12-29T07:54:28.318Z,12.80
2022-12-29T07:56:55.002Z,12.80
2022-12-29T07:59:21.730Z,12.80
2022-12-29T08:01:48.684Z,12.80
2022-12-29T08:04:15.505Z,12.80
2022-12-29T08:06:42.232Z,12.80
2022-12-29T08:09:16.490Z,12.80
2022-12-29T08:11:45.212Z,12.90
2022-12-29T08:14:12.118Z,12.90
2022-12-29T08:16:38.837Z,12.90
2022-12-29T08:19:06.051Z,12.90
2022-12-29T08:21:32.772Z,12.90
2022-12-29T08:23:59.955Z,12.90
2022-12-29T08:26:26.633Z,12.90
2022-12-29T08:28:55.264Z,12.90
2022-12-29T08:31:22.129Z,12.90
2022-12-29T08:33:48.807Z,12.90
2022-12-29T08:36:15.617Z,12.90
2022-12-29T08:38:42.364Z,13.00
2022-12-29T08:41:09.194Z,13.00
2022-12-29T08:43:35.858Z,13.00
2022-12-29T08:46:03.067Z,13.00
2022-12-29T08:48:29.729Z,13.00
2022-12-29T08:50:56.387Z,13.00
2022-12-29T08:53:23.092Z,13.10
2022-12-29T08:56:02.467Z,13.10
2022-12-29T08:58:31.870Z,13.10
2022-12-29T09:00:59.422Z,13.10
2022-12-29T09:03:55.071Z,13.10
2022-12-29T09:06:14.261Z,13.10
2022-12-29T09:08:41.113Z,13.10
2022-12-29T09:11:21.131Z,13.10
2022-12-29T09:13:48.373Z,13.10
2022-12-29T09:16:16.265Z,13.10
2022-12-29T09:18:44.164Z,13.10
2022-12-29T09:21:12.358Z,13.10
2022-12-29T09:23:40.136Z,13.10
2022-12-29T09:26:08.380Z,13.10
2022-12-29T09:28:35.416Z,13.00
2022-12-29T09:31:02.400Z,13.00
2022-12-29T09:33:29.216Z,12.90
2022-12-29T09:35:58.014Z,12.90
2022-12-29T09:38:25.858Z,13.00
2022-12-29T09:41:09.672Z,12.90
2022-12-29T09:43:39.442Z,12.90
2022-12-29T09:46:35.517Z,12.90
2022-12-29T09:49:08.763Z,12.90
2022-12-29T09:51:39.030Z,12.90
2022-12-29T09:54:28.110Z,12.80
2022-12-29T09:56:55.250Z,12.90
2022-12-29T09:59:27.800Z,12.90
2022-12-29T10:02:23.538Z,12.90
2022-12-29T10:04:51.794Z,12.90
2022-12-29T10:07:36.255Z,12.90
2022-12-29T10:10:15.688Z,12.90
2022-12-29T10:13:00.908Z,12.90
2022-12-29T10:15:42.709Z,13.00
2022-12-29T10:18:28.391Z,13.00
2022-12-29T10:21:21.630Z,13.00
2022-12-29T10:23:53.406Z,13.00
2022-12-29T10:26:28.060Z,13.00
2022-12-29T10:29:04.327Z,13.00
2022-12-29T10:31:39.975Z,13.00
2022-12-29T10:34:23.593Z,13.10
2022-12-29T10:36:56.991Z,13.10
2022-12-29T10:39:46.451Z,13.10
2022-12-29T10:42:28.158Z,13.10
2022-12-29T10:44:56.145Z,13.10
2022-12-29T10:47:30.151Z,13.20
2022-12-29T10:49:59.275Z,13.20
2022-12-29T10:52:27.143Z,13.20
2022-12-29T10:55:04.202Z,13.20
2022-12-29T10:57:34.939Z,13.20
2022-12-29T11:00:01.969Z,13.20
2022-12-29T11:03:03.388Z,13.20
2022-12-29T11:05:50.598Z,13.20
2022-12-29T11:08:28.853Z,13.30
2022-12-29T11:11:24.522Z,13.30
2022-12-29T11:14:03.234Z,13.40
2022-12-29T11:16:33.061Z,13.40
2022-12-29T11:19:00.206Z,13.50
2022-12-29T11:21:28.754Z,13.50
2022-12-29T11:24:07.059Z,13.60
2022-12-29T11:26:35.251Z,13.60
2022-12-29T11:29:22.407Z,13.70
2022-12-29T11:31:59.133Z,13.70
2022-12-29T11:34:27.745Z,13.70
2022-12-29T11:37:04.258Z,13.70
2022-12-29T11:39:33.286Z,13.70
2022-12-29T11:42:00.710Z,13.70
2022-12-29T11:44:28.745Z,13.80
2022-12-29T11:46:55.873Z,13.80
2022-12-29T11:49:25.922Z,13.80
2022-12-29T11:51:58.034Z,13.70
2022-12-29T11:54:32.945Z,13.60
2022-12-29T11:57:14.262Z,13.60
2022-12-29T11:59:43.853Z,13.60
2022-12-29T12:03:05.949Z,13.50
2022-12-29T12:05:53.506Z,13.50
2022-12-29T12:09:10.400Z,13.40
2022-12-29T12:11:44.256Z,13.40
2022-12-29T12:14:28.472Z,13.50
2022-12-29T12:17:00.644Z,13.60
2022-12-29T12:19:35.682Z,13.70
2022-12-29T12:22:11.543Z,13.70
2022-12-29T12:24:46.482Z,13.70
2022-12-29T12:27:27.428Z,13.70
2022-12-29T12:30:10.310Z,13.80
2022-12-29T12:32:45.372Z,13.80
2022-12-29T12:35:21.755Z,13.80
2022-12-29T12:38:07.851Z,13.80
2022-12-29T12:40:47.869Z,13.80
2022-12-29T12:43:35.359Z,13.80
2022-12-29T12:46:35.716Z,13.90
2022-12-29T12:49:05.282Z,13.90
2022-12-29T12:51:31.900Z,13.90
2022-12-29T12:54:04.061Z,13.90
2022-12-29T12:56:42.875Z,13.90
2022-12-29T12:59:29.717Z,13.80
2022-12-29T13:02:22.619Z,13.80
2022-12-29T13:05:26.456Z,13.90
2022-12-29T13:08:15.018Z,13.90
2022-12-29T13:10:59.695Z,13.90
2022-12-29T13:14:04.188Z,13.90
2022-12-29T13:16:48.337Z,13.80
2022-12-29T13:19:32.834Z,13.70
2022-12-29T13:22:22.358Z,13.70
2022-12-29T13:24:54.277Z,13.60
2022-12-29T13:27:45.462Z,13.60
2022-12-29T13:30:24.189Z,13.60
2022-12-29T13:33:06.559Z,13.60
2022-12-29T13:35:39.246Z,13.50
2022-12-29T13:38:31.294Z,13.50
2022-12-29T13:41:05.575Z,13.50
2022-12-29T13:43:35.115Z,13.40
2022-12-29T13:46:10.449Z,13.40
2022-12-29T13:49:02.595Z,13.40
2022-12-29T13:51:30.465Z,13.40
2022-12-29T13:54:16.579Z,13.40
2022-12-29T13:56:53.936Z,13.40
2022-12-29T13:59:45.342Z,13.40
2022-12-29T14:02:22.383Z,13.30
2022-12-29T14:05:04.881Z,13.30
2022-12-29T14:07:39.107Z,13.30
2022-12-29T14:10:06.926Z,13.20
2022-12-29T14:12:44.257Z,13.10
2022-12-29T14:15:13.861Z,13.10
2022-12-29T14:17:42.154Z,13.10
2022-12-29T14:20:22.276Z,13.10
2022-12-29T14:23:16.935Z,13.10
2022-12-29T14:26:05.544Z,13.10
2022-12-29T14:28:37.263Z,13.10
2022-12-29T14:31:06.544Z,13.10
2022-12-29T14:33:34.815Z,13.10
2022-12-29T14:36:23.084Z,13.10
2022-12-29T14:38:50.134Z,13.10
2022-12-29T14:41:38.841Z,13.10
2022-12-29T14:44:08.603Z,13.10
2022-12-29T14:46:47.770Z,13.10
2022-12-29T14:49:19.777Z,13.10
2022-12-29T14:51:48.306Z,13.10
2022-12-29T14:54:33.750Z,13.00
2022-12-29T14:57:03.410Z,13.00
2022-12-29T14:59:33.393Z,13.00
2022-12-29T15:02:03.960Z,13.00
2022-12-29T15:04:36.329Z,13.00
2022-12-29T15:07:08.491Z,13.00
2022-12-29T15:09:38.094Z,12.90
2022-12-29T15:12:20.553Z,12.90
2022-12-29T15:14:56.044Z,12.90
2022-12-29T15:17:49.127Z,12.90
2022-12-29T15:20:25.612Z,12.90
2022-12-29T15:23:01.539Z,12.80
2022-12-29T15:25:28.428Z,12.80
2022-12-29T15:28:02.345Z,12.80
2022-12-29T15:30:29.251Z,12.80
2022-12-29T15:32:56.760Z,12.80
2022-12-29T15:35:35.801Z,12.80
2022-12-29T15:38:14.985Z,12.80
2022-12-29T15:40:45.247Z,12.80
2022-12-29T15:43:19.162Z,12.80
2022-12-29T15:45:45.941Z,12.80
2022-12-29T15:48:19.932Z,12.70
2022-12-29T15:50:47.291Z,12.70
2022-12-29T15:53:29.164Z,12.70
2022-12-29T15:56:03.236Z,12.70
2022-12-29T15:58:32.201Z,12.70
2022-12-29T16:01:02.942Z,12.60
2022-12-29T16:03:34.178Z,12.60
2022-12-29T16:06:24.378Z,12.60
2022-12-29T16:08:58.107Z,12.50
2022-12-29T16:11:38.804Z,12.50
2022-12-29T16:14:21.412Z,12.50
2022-12-29T16:16:49.872Z,12.50
2022-12-29T16:19:30.165Z,12.50
2022-12-29T16:21:59.388Z,12.50
2022-12-29T16:24:29.850Z,12.40
2022-12-29T16:27:19.288Z,12.50
2022-12-29T16:29:45.991Z,12.50
2022-12-29T16:32:32.468Z,12.50
2022-12-29T16:35:18.726Z,12.40
2022-12-29T16:37:46.264Z,12.40
2022-12-29T16:40:18.963Z,12.30
2022-12-29T16:42:51.772Z,12.20
2022-12-29T16:45:41.958Z,12.20
2022-12-29T16:48:08.589Z,12.10
2022-12-29T16:50:38.304Z,12.00
2022-12-29T16:53:05.961Z,11.90
2022-12-29T16:55:33.441Z,11.90
2022-12-29T16:58:00.953Z,12.00
2022-12-29T17:00:35.185Z,12.00
2022-12-29T17:03:03.137Z,11.90
2022-12-29T17:05:29.985Z,12.00
2022-12-29T17:08:01.594Z,11.90
2022-12-29T17:10:48.405Z,11.90
2022-12-29T17:13:15.087Z,11.80
2022-12-29T17:15:41.795Z,11.80
2022-12-29T17:18:13.862Z,11.80
2022-12-29T17:20:41.189Z,11.80
2022-12-29T17:23:18.604Z,11.80
2022-12-29T17:25:49.511Z,11.80
2022-12-29T17:28:31.985Z,11.80
2022-12-29T17:31:02.705Z,11.70
2022-12-29T17:33:35.619Z,11.70
2022-12-29T17:36:02.249Z,11.70
2022-12-29T17:38:31.155Z,11.70
2022-12-29T17:40:59.161Z,11.70
2022-12-29T17:43:30.108Z,11.60
2022-12-29T17:46:01.509Z,11.70
2022-12-29T17:48:28.162Z,11.60
2022-12-29T17:50:57.426Z,11.60
2022-12-29T17:53:29.484Z,11.60
2022-12-29T17:55:56.526Z,11.60
2022-12-29T17:58:25.674Z,11.60
2022-12-29T18:00:55.924Z,11.60
2022-12-29T18:03:29.191Z,11.60
2022-12-29T18:05:56.792Z,11.70
2022-12-29T18:08:23.575Z,11.70
2022-12-29T18:10:54.995Z,11.70
2022-12-29T18:13:26.408Z,11.70
2022-12-29T18:15:55.919Z,11.70
2022-12-29T18:18:25.391Z,11.70
2022-12-29T18:20:54.864Z,11.70
2022-12-29T18:23:24.961Z,11.70
2022-12-29T18:26:01.296Z,11.70
2022-12-29T18:28:28.724Z,11.70
2022-12-29T18:30:59.184Z,11.70
2022-12-29T18:33:26.898Z,11.70
2022-12-29T18:36:01.872Z,11.70
2022-12-29T18:38:29.793Z,11.70
2022-12-29T18:40:58.007Z,11.70
2022-12-29T18:43:25.034Z,11.70
2022-12-29T18:45:51.839Z,11.70
2022-12-29T18:48:20.177Z,11.70
2022-12-29T18:50:49.779Z,11.70
2022-12-29T18:53:18.537Z,11.70
2022-12-29T18:55:45.202Z,11.60
2022-12-29T18:58:12.249Z,11.70
2022-12-29T19:00:39.207Z,11.70
2022-12-29T19:03:06.174Z,11.70
2022-12-29T19:05:37.961Z,11.70
2022-12-29T19:08:05.380Z,11.70
2022-12-29T19:10:32.655Z,11.70
2022-12-29T19:12:59.327Z,11.70
2022-12-29T19:15:35.257Z,11.70
2022-12-29T19:20:51.833Z,11.70
2022-12-29T19:23:20.778Z,11.70
2022-12-29T19:25:49.174Z,11.70
2022-12-29T19:28:27.706Z,11.70
2022-12-29T19:30:58.239Z,11.60
2022-12-29T19:33:25.307Z,11.70
2022-12-29T19:35:52.720Z,11.60
2022-12-29T19:38:19.976Z,11.60
2022-12-29T19:40:50.246Z,11.60
2022-12-29T19:43:17.933Z,11.50
2022-12-29T19:45:45.415Z,11.50
2022-12-29T19:48:17.910Z,11.50
2022-12-29T19:50:45.525Z,11.50
2022-12-29T19:53:13.451Z,11.40
2022-12-29T19:55:44.441Z,11.30
2022-12-29T19:58:11.136Z,11.30
2022-12-29T20:00:44.963Z,11.30
2022-12-29T20:03:12.119Z,11.30
2022-12-29T20:05:39.777Z,11.30
2022-12-29T20:08:06.502Z,11.20
2022-12-29T20:10:33.153Z,11.20
2022-12-29T20:12:59.821Z,11.20
2022-12-29T20:15:26.484Z,11.20
2022-12-29T20:20:39.762Z,11.10
2022-12-29T20:23:06.413Z,11.10
2022-12-29T20:25:48.605Z,11.10
2022-12-29T20:28:15.992Z,11.10
2022-12-29T20:30:43.290Z,11.00
